Sunday, September 22, 2019, 12:26 PM EDT
Back to Local

KORH, Worcester Regional Airport

Location: Worcester, MA, United States Lat: 42.267
Local Time: 12:26 PM EDT (16:26 GMT) Lon: -71.867
Time Zone: US/Eastern Elev: 1010 ft

Show me the last for .
Show Decoded

2019-09-22 11:54 METAR KORH 221554Z 24012KT 10SM CLR 24/14 A3015 RMK AO2 SLP205 T02440144 =
2019-09-22 10:54 METAR KORH 221454Z 24009KT 10SM CLR 23/14 A3016 RMK AO2 SLP209 T02330144 58006 =
2019-09-22 09:54 METAR KORH 221354Z 24008KT 10SM CLR 22/14 A3017 RMK AO2 SLP213 T02170144 =
2019-09-22 08:54 METAR KORH 221254Z 25008KT 10SM CLR 19/13 A3017 RMK AO2 SLP215 T01940133 =
2019-09-22 07:54 METAR KORH 221154Z 26008KT 10SM CLR 18/13 A3018 RMK AO2 SLP216 T01780128 10178
                 20144 53000 =
2019-09-22 06:54 METAR KORH 221054Z 26006KT 10SM CLR 16/12 A3017 RMK AO2 SLP215 T01610122 =
2019-09-22 05:54 METAR KORH 220954Z 25006KT 10SM CLR 16/12 A3018 RMK AO2 SLP215 T01610117 =
2019-09-22 04:54 METAR KORH 220854Z AUTO 25007KT 10SM CLR 17/12 A3018 RMK AO2 SLP215 T01670122
                 56007 =
2019-09-22 03:54 METAR KORH 220754Z AUTO 25007KT 10SM CLR 16/13 A3018 RMK AO2 SLP215 T01610128 =
2019-09-22 02:54 METAR KORH 220654Z AUTO 25005KT 10SM CLR 17/13 A3018 RMK AO2 SLP216 T01670133 =
2019-09-22 01:54 METAR KORH 220554Z AUTO 26008KT 10SM CLR 17/14 A3020 RMK AO2 SLP222 T01720139
                 10211 20161 52001 =
2019-09-22 00:54 METAR KORH 220454Z AUTO 25008KT 10SM CLR 16/14 A3020 RMK AO2 SLP222 T01610139
                 402610150 =
2019-09-21 23:54 METAR KORH 220354Z 26008KT 10SM CLR 18/14 A3019 RMK AO2 SLP221 T01830144 =
2019-09-21 22:54 METAR KORH 220254Z 25007KT 10SM CLR 18/15 A3019 RMK AO2 SLP221 T01830150 51005 =
2019-09-21 21:54 METAR KORH 220154Z 26007KT 10SM CLR 20/15 A3019 RMK AO2 SLP221 T02000150 =
2019-09-21 20:54 METAR KORH 220054Z 26007KT 10SM CLR 19/15 A3019 RMK AO2 SLP219 T01940150 =
2019-09-21 19:54 METAR KORH 212354Z 26007KT 10SM CLR 21/15 A3018 RMK AO2 SLP217 T02110150 10261
                 20211 51000 =
2019-09-21 18:54 METAR KORH 212254Z 26006KT 10SM CLR 22/16 A3018 RMK AO2 SLP218 T02220156 =
2019-09-21 17:54 METAR KORH 212154Z 27004KT 10SM CLR 25/17 A3018 RMK AO2 SLP217 T02500167 =
2019-09-21 16:54 METAR KORH 212054Z 24004KT 10SM CLR 26/16 A3018 RMK AO2 SLP216 T02610156 56005 =
2019-09-21 15:54 METAR KORH 211954Z 23005KT 10SM CLR 26/15 A3018 RMK AO2 SLP217 T02610150 =
2019-09-21 14:54 METAR KORH 211854Z 22006KT 10SM CLR 26/16 A3019 RMK AO2 SLP218 T02560156 =
2019-09-21 13:54 METAR KORH 211754Z 17006KT 10SM CLR 25/16 A3019 RMK AO2 SLP221 T02500156 10256
                 20178 58016 =
2019-09-21 12:54 METAR KORH 211654Z VRB03KT 10SM CLR 24/14 A3021 RMK AO2 SLP227 T02440144 =

Support USWX by starting your Amazon purchase here.